sensor_id;sensor_type;location;lat;lon;timestamp;P1;durP1;ratioP1;P2;durP2;ratioP2
41986;SDS011;28361;50.740;7.084;2022-09-24T00:01:37;4.95;;;2.78;;
41986;SDS011;28361;50.740;7.084;2022-09-24T00:04:05;7.85;;;3.13;;
41986;SDS011;28361;50.740;7.084;2022-09-24T00:06:36;5.28;;;2.90;;
41986;SDS011;28361;50.740;7.084;2022-09-24T00:09:02;6.40;;;2.92;;
41986;SDS011;28361;50.740;7.084;2022-09-24T00:11:29;4.95;;;2.60;;
41986;SDS011;28361;50.740;7.084;2022-09-24T00:13:56;4.47;;;2.63;;
41986;SDS011;28361;50.740;7.084;2022-09-24T00:16:23;6.85;;;2.95;;
41986;SDS011;28361;50.740;7.084;2022-09-24T00:18:50;6.03;;;3.03;;
41986;SDS011;28361;50.740;7.084;2022-09-24T00:21:20;5.97;;;2.85;;
41986;SDS011;28361;50.740;7.084;2022-09-24T00:23:48;6.13;;;2.80;;
41986;SDS011;28361;50.740;7.084;2022-09-24T00:26:15;4.35;;;2.70;;
41986;SDS011;28361;50.740;7.084;2022-09-24T00:29:00;4.25;;;2.80;;
41986;SDS011;28361;50.740;7.084;2022-09-24T00:31:26;5.63;;;2.53;;
41986;SDS011;28361;50.740;7.084;2022-09-24T00:33:52;6.55;;;2.53;;
41986;SDS011;28361;50.740;7.084;2022-09-24T00:36:19;9.90;;;3.10;;
41986;SDS011;28361;50.740;7.084;2022-09-24T00:38:49;7.75;;;3.50;;
41986;SDS011;28361;50.740;7.084;2022-09-24T00:41:16;4.50;;;2.50;;
41986;SDS011;28361;50.740;7.084;2022-09-24T00:43:44;3.38;;;2.28;;
41986;SDS011;28361;50.740;7.084;2022-09-24T00:49:12;4.93;;;2.67;;
41986;SDS011;28361;50.740;7.084;2022-09-24T00:54:06;5.03;;;2.28;;
41986;SDS011;28361;50.740;7.084;2022-09-24T00:56:34;3.80;;;2.60;;
41986;SDS011;28361;50.740;7.084;2022-09-24T00:59:02;8.80;;;3.13;;
41986;SDS011;28361;50.740;7.084;2022-09-24T01:01:29;5.40;;;2.65;;
41986;SDS011;28361;50.740;7.084;2022-09-24T01:03:56;4.90;;;2.97;;
41986;SDS011;28361;50.740;7.084;2022-09-24T01:06:23;5.45;;;2.55;;
41986;SDS011;28361;50.740;7.084;2022-09-24T01:08:49;3.45;;;2.58;;
41986;SDS011;28361;50.740;7.084;2022-09-24T01:19:14;5.68;;;2.75;;
41986;SDS011;28361;50.740;7.084;2022-09-24T01:21:49;6.95;;;3.03;;
41986;SDS011;28361;50.740;7.084;2022-09-24T01:27:15;4.72;;;2.38;;
41986;SDS011;28361;50.740;7.084;2022-09-24T01:32:16;5.85;;;2.30;;
41986;SDS011;28361;50.740;7.084;2022-09-24T01:37:31;5.07;;;2.47;;
41986;SDS011;28361;50.740;7.084;2022-09-24T01:39:58;3.72;;;2.35;;
41986;SDS011;28361;50.740;7.084;2022-09-24T01:42:26;4.28;;;2.38;;
41986;SDS011;28361;50.740;7.084;2022-09-24T01:44:54;6.10;;;2.60;;
41986;SDS011;28361;50.740;7.084;2022-09-24T01:47:32;4.88;;;2.50;;
41986;SDS011;28361;50.740;7.084;2022-09-24T01:50:04;4.20;;;2.60;;
41986;SDS011;28361;50.740;7.084;2022-09-24T01:52:33;5.40;;;2.40;;
41986;SDS011;28361;50.740;7.084;2022-09-24T01:55:00;5.07;;;2.20;;
41986;SDS011;28361;50.740;7.084;2022-09-24T01:57:32;5.32;;;2.40;;
41986;SDS011;28361;50.740;7.084;2022-09-24T02:00:01;6.35;;;2.47;;
41986;SDS011;28361;50.740;7.084;2022-09-24T02:05:05;5.32;;;2.75;;
41986;SDS011;28361;50.740;7.084;2022-09-24T02:07:36;3.92;;;2.33;;
41986;SDS011;28361;50.740;7.084;2022-09-24T02:10:04;4.00;;;2.30;;
41986;SDS011;28361;50.740;7.084;2022-09-24T02:12:32;6.80;;;2.97;;
41986;SDS011;28361;50.740;7.084;2022-09-24T02:15:06;4.32;;;2.33;;
41986;SDS011;28361;50.740;7.084;2022-09-24T02:17:35;6.13;;;2.33;;
41986;SDS011;28361;50.740;7.084;2022-09-24T02:20:04;3.78;;;2.40;;
41986;SDS011;28361;50.740;7.084;2022-09-24T02:22:32;3.83;;;2.08;;
41986;SDS011;28361;50.740;7.084;2022-09-24T02:24:59;3.38;;;2.45;;
41986;SDS011;28361;50.740;7.084;2022-09-24T02:27:26;6.75;;;2.42;;
41986;SDS011;28361;50.740;7.084;2022-09-24T02:29:53;5.15;;;2.08;;
41986;SDS011;28361;50.740;7.084;2022-09-24T02:32:20;3.92;;;2.25;;
41986;SDS011;28361;50.740;7.084;2022-09-24T02:34:49;3.22;;;2.20;;
41986;SDS011;28361;50.740;7.084;2022-09-24T02:37:16;4.13;;;2.15;;
41986;SDS011;28361;50.740;7.084;2022-09-24T02:39:44;4.85;;;1.83;;
41986;SDS011;28361;50.740;7.084;2022-09-24T02:42:11;3.40;;;2.45;;
41986;SDS011;28361;50.740;7.084;2022-09-24T02:44:38;5.82;;;2.75;;
41986;SDS011;28361;50.740;7.084;2022-09-24T02:47:06;3.35;;;2.10;;
41986;SDS011;28361;50.740;7.084;2022-09-24T02:49:32;7.32;;;2.45;;
41986;SDS011;28361;50.740;7.084;2022-09-24T02:51:58;3.50;;;2.45;;
41986;SDS011;28361;50.740;7.084;2022-09-24T02:54:24;7.22;;;2.53;;
41986;SDS011;28361;50.740;7.084;2022-09-24T02:56:50;4.90;;;2.35;;
41986;SDS011;28361;50.740;7.084;2022-09-24T02:59:17;4.82;;;2.45;;
41986;SDS011;28361;50.740;7.084;2022-09-24T03:01:45;6.93;;;2.88;;
41986;SDS011;28361;50.740;7.084;2022-09-24T03:04:12;4.50;;;2.70;;
41986;SDS011;28361;50.740;7.084;2022-09-24T03:06:38;4.50;;;2.83;;
41986;SDS011;28361;50.740;7.084;2022-09-24T03:09:04;5.80;;;2.88;;
41986;SDS011;28361;50.740;7.084;2022-09-24T03:11:30;6.78;;;2.60;;
41986;SDS011;28361;50.740;7.084;2022-09-24T03:13:57;3.78;;;2.47;;
41986;SDS011;28361;50.740;7.084;2022-09-24T03:16:24;7.35;;;2.70;;
41986;SDS011;28361;50.740;7.084;2022-09-24T03:18:50;3.50;;;2.60;;
41986;SDS011;28361;50.740;7.084;2022-09-24T03:21:17;7.13;;;2.47;;
41986;SDS011;28361;50.740;7.084;2022-09-24T03:23:43;7.72;;;2.83;;
41986;SDS011;28361;50.740;7.084;2022-09-24T03:26:09;6.10;;;2.50;;
41986;SDS011;28361;50.740;7.084;2022-09-24T03:28:36;5.95;;;2.60;;
41986;SDS011;28361;50.740;7.084;2022-09-24T03:31:02;4.90;;;2.60;;
41986;SDS011;28361;50.740;7.084;2022-09-24T03:33:32;4.15;;;2.30;;
41986;SDS011;28361;50.740;7.084;2022-09-24T03:36:09;10.47;;;2.77;;
41986;SDS011;28361;50.740;7.084;2022-09-24T03:38:36;4.72;;;2.58;;
41986;SDS011;28361;50.740;7.084;2022-09-24T03:41:03;6.22;;;2.40;;
41986;SDS011;28361;50.740;7.084;2022-09-24T03:43:30;6.60;;;2.38;;
41986;SDS011;28361;50.740;7.084;2022-09-24T03:45:56;8.10;;;2.63;;
41986;SDS011;28361;50.740;7.084;2022-09-24T03:48:23;3.38;;;2.30;;
41986;SDS011;28361;50.740;7.084;2022-09-24T03:50:49;6.13;;;2.70;;
41986;SDS011;28361;50.740;7.084;2022-09-24T03:53:16;5.97;;;2.75;;
41986;SDS011;28361;50.740;7.084;2022-09-24T03:55:43;5.55;;;2.65;;
41986;SDS011;28361;50.740;7.084;2022-09-24T03:58:09;3.80;;;2.53;;
41986;SDS011;28361;50.740;7.084;2022-09-24T04:00:35;5.65;;;2.28;;
41986;SDS011;28361;50.740;7.084;2022-09-24T04:03:01;5.82;;;3.22;;
41986;SDS011;28361;50.740;7.084;2022-09-24T04:05:27;9.20;;;3.03;;
41986;SDS011;28361;50.740;7.084;2022-09-24T04:07:54;5.78;;;2.63;;
41986;SDS011;28361;50.740;7.084;2022-09-24T04:10:21;4.40;;;2.40;;
41986;SDS011;28361;50.740;7.084;2022-09-24T04:12:48;5.18;;;2.35;;
41986;SDS011;28361;50.740;7.084;2022-09-24T04:15:14;3.85;;;2.45;;
41986;SDS011;28361;50.740;7.084;2022-09-24T04:17:48;6.60;;;3.42;;
41986;SDS011;28361;50.740;7.084;2022-09-24T04:20:14;6.15;;;3.03;;
41986;SDS011;28361;50.740;7.084;2022-09-24T04:22:40;3.88;;;2.53;;
41986;SDS011;28361;50.740;7.084;2022-09-24T04:25:06;5.28;;;2.65;;
41986;SDS011;28361;50.740;7.084;2022-09-24T04:27:33;4.53;;;2.90;;
41986;SDS011;28361;50.740;7.084;2022-09-24T04:30:00;3.53;;;2.83;;
41986;SDS011;28361;50.740;7.084;2022-09-24T04:32:27;5.60;;;3.10;;
41986;SDS011;28361;50.740;7.084;2022-09-24T04:34:53;5.18;;;2.33;;
41986;SDS011;28361;50.740;7.084;2022-09-24T04:37:19;5.80;;;2.72;;
41986;SDS011;28361;50.740;7.084;2022-09-24T04:39:45;11.43;;;3.10;;
41986;SDS011;28361;50.740;7.084;2022-09-24T04:42:15;4.05;;;2.70;;
41986;SDS011;28361;50.740;7.084;2022-09-24T04:44:41;5.43;;;2.60;;
41986;SDS011;28361;50.740;7.084;2022-09-24T04:47:11;8.90;;;3.50;;
41986;SDS011;28361;50.740;7.084;2022-09-24T04:49:37;6.22;;;2.65;;
41986;SDS011;28361;50.740;7.084;2022-09-24T04:52:03;4.18;;;2.72;;
41986;SDS011;28361;50.740;7.084;2022-09-24T04:54:30;5.20;;;2.83;;
41986;SDS011;28361;50.740;7.084;2022-09-24T04:56:56;4.20;;;2.55;;
41986;SDS011;28361;50.740;7.084;2022-09-24T04:59:22;5.53;;;2.55;;
41986;SDS011;28361;50.740;7.084;2022-09-24T05:01:48;5.45;;;2.83;;
41986;SDS011;28361;50.740;7.084;2022-09-24T05:04:14;5.53;;;3.53;;
41986;SDS011;28361;50.740;7.084;2022-09-24T05:06:42;7.35;;;3.90;;
41986;SDS011;28361;50.740;7.084;2022-09-24T05:09:08;4.43;;;2.88;;
41986;SDS011;28361;50.740;7.084;2022-09-24T05:11:34;4.55;;;2.83;;
41986;SDS011;28361;50.740;7.084;2022-09-24T05:14:00;8.43;;;2.88;;
41986;SDS011;28361;50.740;7.084;2022-09-24T05:16:26;8.07;;;3.22;;
41986;SDS011;28361;50.740;7.084;2022-09-24T05:18:53;4.07;;;3.10;;
41986;SDS011;28361;50.740;7.084;2022-09-24T05:21:19;6.65;;;3.33;;
41986;SDS011;28361;50.740;7.084;2022-09-24T05:23:46;10.43;;;3.05;;
41986;SDS011;28361;50.740;7.084;2022-09-24T05:26:12;5.30;;;2.72;;
41986;SDS011;28361;50.740;7.084;2022-09-24T05:28:57;5.65;;;2.65;;
41986;SDS011;28361;50.740;7.084;2022-09-24T05:31:23;7.45;;;3.40;;
41986;SDS011;28361;50.740;7.084;2022-09-24T05:33:49;6.13;;;3.00;;
41986;SDS011;28361;50.740;7.084;2022-09-24T05:36:15;9.10;;;3.20;;
41986;SDS011;28361;50.740;7.084;2022-09-24T05:38:42;8.82;;;3.38;;
41986;SDS011;28361;50.740;7.084;2022-09-24T05:41:08;8.68;;;3.17;;
41986;SDS011;28361;50.740;7.084;2022-09-24T05:43:34;5.43;;;2.53;;
41986;SDS011;28361;50.740;7.084;2022-09-24T05:46:02;9.27;;;3.63;;
41986;SDS011;28361;50.740;7.084;2022-09-24T05:48:28;6.45;;;3.00;;
41986;SDS011;28361;50.740;7.084;2022-09-24T05:50:54;6.88;;;3.05;;
41986;SDS011;28361;50.740;7.084;2022-09-24T05:53:21;7.88;;;3.03;;
41986;SDS011;28361;50.740;7.084;2022-09-24T05:55:48;3.85;;;2.50;;
41986;SDS011;28361;50.740;7.084;2022-09-24T05:58:14;3.20;;;2.65;;
41986;SDS011;28361;50.740;7.084;2022-09-24T06:00:40;5.88;;;3.05;;
41986;SDS011;28361;50.740;7.084;2022-09-24T06:03:09;6.55;;;2.97;;
41986;SDS011;28361;50.740;7.084;2022-09-24T06:05:36;4.20;;;2.67;;
41986;SDS011;28361;50.740;7.084;2022-09-24T06:08:02;6.10;;;3.38;;
41986;SDS011;28361;50.740;7.084;2022-09-24T06:10:29;6.00;;;2.38;;
41986;SDS011;28361;50.740;7.084;2022-09-24T06:12:55;6.55;;;2.78;;
41986;SDS011;28361;50.740;7.084;2022-09-24T06:15:21;7.50;;;2.83;;
41986;SDS011;28361;50.740;7.084;2022-09-24T06:17:47;4.78;;;2.60;;
41986;SDS011;28361;50.740;7.084;2022-09-24T06:20:13;5.32;;;3.00;;
41986;SDS011;28361;50.740;7.084;2022-09-24T06:22:39;5.32;;;3.25;;
41986;SDS011;28361;50.740;7.084;2022-09-24T06:25:06;5.18;;;2.70;;
41986;SDS011;28361;50.740;7.084;2022-09-24T06:27:32;5.97;;;3.05;;
41986;SDS011;28361;50.740;7.084;2022-09-24T06:29:58;8.90;;;3.20;;
41986;SDS011;28361;50.740;7.084;2022-09-24T06:32:25;7.70;;;3.63;;
41986;SDS011;28361;50.740;7.084;2022-09-24T06:34:51;5.10;;;3.20;;
41986;SDS011;28361;50.740;7.084;2022-09-24T06:37:17;4.68;;;3.25;;
41986;SDS011;28361;50.740;7.084;2022-09-24T06:39:43;6.95;;;2.95;;
41986;SDS011;28361;50.740;7.084;2022-09-24T06:42:09;4.82;;;3.13;;
41986;SDS011;28361;50.740;7.084;2022-09-24T06:44:36;7.75;;;2.95;;
41986;SDS011;28361;50.740;7.084;2022-09-24T06:47:02;7.43;;;3.22;;
41986;SDS011;28361;50.740;7.084;2022-09-24T06:49:28;7.68;;;2.95;;
41986;SDS011;28361;50.740;7.084;2022-09-24T06:51:54;10.27;;;3.47;;
41986;SDS011;28361;50.740;7.084;2022-09-24T06:54:22;7.50;;;3.25;;
41986;SDS011;28361;50.740;7.084;2022-09-24T06:56:48;5.97;;;3.53;;
41986;SDS011;28361;50.740;7.084;2022-09-24T06:59:17;5.68;;;3.33;;
41986;SDS011;28361;50.740;7.084;2022-09-24T07:01:43;9.02;;;3.42;;
41986;SDS011;28361;50.740;7.084;2022-09-24T07:04:09;10.52;;;3.42;;
41986;SDS011;28361;50.740;7.084;2022-09-24T07:06:35;8.80;;;3.30;;
41986;SDS011;28361;50.740;7.084;2022-09-24T07:09:20;3.65;;;2.67;;
41986;SDS011;28361;50.740;7.084;2022-09-24T07:11:46;6.07;;;3.05;;
41986;SDS011;28361;50.740;7.084;2022-09-24T07:14:13;7.45;;;3.10;;
41986;SDS011;28361;50.740;7.084;2022-09-24T07:16:39;7.10;;;3.40;;
41986;SDS011;28361;50.740;7.084;2022-09-24T07:19:05;5.30;;;3.05;;
41986;SDS011;28361;50.740;7.084;2022-09-24T07:21:31;4.82;;;3.13;;
41986;SDS011;28361;50.740;7.084;2022-09-24T07:23:57;5.75;;;3.10;;
41986;SDS011;28361;50.740;7.084;2022-09-24T07:26:23;5.00;;;2.70;;
41986;SDS011;28361;50.740;7.084;2022-09-24T07:28:49;7.32;;;3.10;;
41986;SDS011;28361;50.740;7.084;2022-09-24T07:31:15;4.93;;;2.75;;
41986;SDS011;28361;50.740;7.084;2022-09-24T07:33:41;6.28;;;2.88;;
41986;SDS011;28361;50.740;7.084;2022-09-24T07:36:08;4.28;;;2.83;;
41986;SDS011;28361;50.740;7.084;2022-09-24T07:38:34;5.45;;;3.00;;
41986;SDS011;28361;50.740;7.084;2022-09-24T07:41:01;6.60;;;3.20;;
41986;SDS011;28361;50.740;7.084;2022-09-24T07:43:32;5.72;;;3.30;;
41986;SDS011;28361;50.740;7.084;2022-09-24T07:45:58;5.43;;;2.97;;
41986;SDS011;28361;50.740;7.084;2022-09-24T07:48:24;5.10;;;2.92;;
41986;SDS011;28361;50.740;7.084;2022-09-24T07:50:50;3.72;;;2.88;;
41986;SDS011;28361;50.740;7.084;2022-09-24T07:53:16;6.47;;;3.42;;
41986;SDS011;28361;50.740;7.084;2022-09-24T07:55:42;6.25;;;3.55;;
41986;SDS011;28361;50.740;7.084;2022-09-24T07:58:12;4.53;;;2.97;;
41986;SDS011;28361;50.740;7.084;2022-09-24T08:00:39;5.75;;;3.33;;
41986;SDS011;28361;50.740;7.084;2022-09-24T08:03:05;8.68;;;4.63;;
41986;SDS011;28361;50.740;7.084;2022-09-24T08:05:31;8.40;;;3.25;;
41986;SDS011;28361;50.740;7.084;2022-09-24T08:07:57;7.13;;;3.42;;
41986;SDS011;28361;50.740;7.084;2022-09-24T08:10:25;7.15;;;3.95;;
41986;SDS011;28361;50.740;7.084;2022-09-24T08:12:51;8.55;;;3.25;;
41986;SDS011;28361;50.740;7.084;2022-09-24T08:15:18;5.18;;;3.25;;
41986;SDS011;28361;50.740;7.084;2022-09-24T08:17:44;7.25;;;3.38;;
41986;SDS011;28361;50.740;7.084;2022-09-24T08:20:10;6.90;;;3.45;;
41986;SDS011;28361;50.740;7.084;2022-09-24T08:22:36;6.47;;;3.65;;
41986;SDS011;28361;50.740;7.084;2022-09-24T08:25:03;5.68;;;3.65;;
41986;SDS011;28361;50.740;7.084;2022-09-24T08:27:30;5.90;;;3.90;;
41986;SDS011;28361;50.740;7.084;2022-09-24T08:29:57;6.25;;;3.58;;
41986;SDS011;28361;50.740;7.084;2022-09-24T08:32:24;8.43;;;3.10;;
41986;SDS011;28361;50.740;7.084;2022-09-24T08:34:50;4.30;;;3.05;;
41986;SDS011;28361;50.740;7.084;2022-09-24T08:37:17;5.90;;;3.75;;
41986;SDS011;28361;50.740;7.084;2022-09-24T08:39:43;9.90;;;3.20;;
41986;SDS011;28361;50.740;7.084;2022-09-24T08:42:31;5.63;;;3.60;;
41986;SDS011;28361;50.740;7.084;2022-09-24T08:44:58;4.97;;;3.10;;
41986;SDS011;28361;50.740;7.084;2022-09-24T08:55:11;6.35;;;3.45;;
41986;SDS011;28361;50.740;7.084;2022-09-24T09:00:04;5.43;;;3.05;;
41986;SDS011;28361;50.740;7.084;2022-09-24T09:06:09;7.78;;;3.83;;
41986;SDS011;28361;50.740;7.084;2022-09-24T09:08:18;5.78;;;3.90;;
41986;SDS011;28361;50.740;7.084;2022-09-24T09:11:00;6.15;;;3.50;;
41986;SDS011;28361;50.740;7.084;2022-09-24T09:13:29;9.52;;;3.22;;
41986;SDS011;28361;50.740;7.084;2022-09-24T09:16:01;6.60;;;3.45;;
41986;SDS011;28361;50.740;7.084;2022-09-24T09:21:12;5.88;;;3.53;;
41986;SDS011;28361;50.740;7.084;2022-09-24T09:23:46;8.85;;;4.28;;
41986;SDS011;28361;50.740;7.084;2022-09-24T09:26:13;6.40;;;4.15;;
41986;SDS011;28361;50.740;7.084;2022-09-24T09:28:42;7.47;;;4.57;;
41986;SDS011;28361;50.740;7.084;2022-09-24T09:34:27;7.57;;;4.07;;
41986;SDS011;28361;50.740;7.084;2022-09-24T09:37:13;6.80;;;4.43;;
41986;SDS011;28361;50.740;7.084;2022-09-24T09:42:32;8.20;;;4.68;;
41986;SDS011;28361;50.740;7.084;2022-09-24T09:47:56;10.63;;;5.32;;
41986;SDS011;28361;50.740;7.084;2022-09-24T09:53:01;8.75;;;4.93;;
41986;SDS011;28361;50.740;7.084;2022-09-24T09:55:33;9.40;;;5.13;;
41986;SDS011;28361;50.740;7.084;2022-09-24T10:00:39;9.18;;;5.70;;
41986;SDS011;28361;50.740;7.084;2022-09-24T10:03:05;9.90;;;5.13;;
41986;SDS011;28361;50.740;7.084;2022-09-24T10:05:50;8.90;;;5.53;;
41986;SDS011;28361;50.740;7.084;2022-09-24T10:08:21;9.00;;;5.65;;
41986;SDS011;28361;50.740;7.084;2022-09-24T10:10:55;9.68;;;5.80;;
41986;SDS011;28361;50.740;7.084;2022-09-24T10:13:24;13.40;;;6.25;;
41986;SDS011;28361;50.740;7.084;2022-09-24T10:15:58;11.02;;;5.68;;
41986;SDS011;28361;50.740;7.084;2022-09-24T10:20:53;11.98;;;6.07;;
41986;SDS011;28361;50.740;7.084;2022-09-24T10:23:21;11.35;;;5.53;;
41986;SDS011;28361;50.740;7.084;2022-09-24T10:25:59;10.23;;;5.88;;
41986;SDS011;28361;50.740;7.084;2022-09-24T10:33:39;12.60;;;7.03;;
41986;SDS011;28361;50.740;7.084;2022-09-24T10:36:15;8.75;;;5.82;;
41986;SDS011;28361;50.740;7.084;2022-09-24T10:38:44;10.93;;;5.10;;
41986;SDS011;28361;50.740;7.084;2022-09-24T10:41:13;9.02;;;5.57;;
41986;SDS011;28361;50.740;7.084;2022-09-24T10:43:48;7.82;;;5.45;;
41986;SDS011;28361;50.740;7.084;2022-09-24T10:46:17;9.32;;;6.07;;
41986;SDS011;28361;50.740;7.084;2022-09-24T10:48:57;10.27;;;6.45;;
41986;SDS011;28361;50.740;7.084;2022-09-24T10:56:56;11.23;;;6.50;;
41986;SDS011;28361;50.740;7.084;2022-09-24T10:59:48;11.60;;;7.47;;
41986;SDS011;28361;50.740;7.084;2022-09-24T11:07:44;11.95;;;6.97;;
41986;SDS011;28361;50.740;7.084;2022-09-24T11:13:04;10.98;;;6.15;;
41986;SDS011;28361;50.740;7.084;2022-09-24T11:38:33;14.48;;;7.93;;
41986;SDS011;28361;50.740;7.084;2022-09-24T11:49:42;14.63;;;8.50;;
41986;SDS011;28361;50.740;7.084;2022-09-24T11:52:40;13.60;;;9.15;;
41986;SDS011;28361;50.740;7.084;2022-09-24T12:00:32;15.60;;;9.50;;
41986;SDS011;28361;50.740;7.084;2022-09-24T12:03:22;15.07;;;10.15;;
41986;SDS011;28361;50.740;7.084;2022-09-24T12:06:02;19.40;;;10.57;;
41986;SDS011;28361;50.740;7.084;2022-09-24T12:08:35;18.10;;;10.52;;
41986;SDS011;28361;50.740;7.084;2022-09-24T12:11:49;17.58;;;10.45;;
41986;SDS011;28361;50.740;7.084;2022-09-24T12:16:44;17.60;;;10.13;;
41986;SDS011;28361;50.740;7.084;2022-09-24T12:21:43;22.27;;;11.63;;
41986;SDS011;28361;50.740;7.084;2022-09-24T12:26:46;17.52;;;11.55;;
41986;SDS011;28361;50.740;7.084;2022-09-24T12:35:42;15.57;;;9.63;;
41986;SDS011;28361;50.740;7.084;2022-09-24T12:38:37;15.38;;;9.73;;
41986;SDS011;28361;50.740;7.084;2022-09-24T12:49:26;18.13;;;9.13;;
41986;SDS011;28361;50.740;7.084;2022-09-24T12:51:57;14.82;;;8.77;;
41986;SDS011;28361;50.740;7.084;2022-09-24T12:54:34;15.05;;;8.63;;
41986;SDS011;28361;50.740;7.084;2022-09-24T12:57:09;17.38;;;9.43;;
41986;SDS011;28361;50.740;7.084;2022-09-24T12:59:48;16.43;;;9.73;;
41986;SDS011;28361;50.740;7.084;2022-09-24T13:02:19;13.13;;;8.98;;
41986;SDS011;28361;50.740;7.084;2022-09-24T13:07:38;19.42;;;9.55;;
41986;SDS011;28361;50.740;7.084;2022-09-24T13:12:51;16.85;;;9.85;;
41986;SDS011;28361;50.740;7.084;2022-09-24T13:15:36;16.77;;;9.93;;
41986;SDS011;28361;50.740;7.084;2022-09-24T13:20:36;17.52;;;11.40;;
41986;SDS011;28361;50.740;7.084;2022-09-24T13:25:58;20.48;;;11.02;;
41986;SDS011;28361;50.740;7.084;2022-09-24T13:28:31;16.67;;;10.98;;
41986;SDS011;28361;50.740;7.084;2022-09-24T13:33:54;23.83;;;12.35;;
41986;SDS011;28361;50.740;7.084;2022-09-24T13:42:27;17.42;;;10.95;;
41986;SDS011;28361;50.740;7.084;2022-09-24T13:45:03;20.23;;;11.52;;
41986;SDS011;28361;50.740;7.084;2022-09-24T13:47:35;16.50;;;11.25;;
41986;SDS011;28361;50.740;7.084;2022-09-24T13:50:21;19.52;;;11.13;;
41986;SDS011;28361;50.740;7.084;2022-09-24T13:52:56;18.27;;;11.40;;
41986;SDS011;28361;50.740;7.084;2022-09-24T13:55:46;23.23;;;14.30;;
41986;SDS011;28361;50.740;7.084;2022-09-24T13:58:25;19.60;;;12.85;;
41986;SDS011;28361;50.740;7.084;2022-09-24T14:00:59;22.90;;;12.95;;
41986;SDS011;28361;50.740;7.084;2022-09-24T14:03:33;19.38;;;11.70;;
41986;SDS011;28361;50.740;7.084;2022-09-24T14:08:33;18.63;;;11.45;;
41986;SDS011;28361;50.740;7.084;2022-09-24T14:11:03;20.92;;;11.73;;
41986;SDS011;28361;50.740;7.084;2022-09-24T14:13:34;21.20;;;11.80;;
41986;SDS011;28361;50.740;7.084;2022-09-24T14:16:07;21.33;;;12.20;;
41986;SDS011;28361;50.740;7.084;2022-09-24T14:18:34;20.90;;;13.80;;
41986;SDS011;28361;50.740;7.084;2022-09-24T14:23:56;21.95;;;13.98;;
41986;SDS011;28361;50.740;7.084;2022-09-24T14:26:39;24.92;;;14.00;;
41986;SDS011;28361;50.740;7.084;2022-09-24T14:29:27;24.35;;;14.30;;
41986;SDS011;28361;50.740;7.084;2022-09-24T14:32:02;24.95;;;14.85;;
41986;SDS011;28361;50.740;7.084;2022-09-24T14:34:38;28.02;;;15.18;;
41986;SDS011;28361;50.740;7.084;2022-09-24T14:37:17;24.95;;;15.70;;
41986;SDS011;28361;50.740;7.084;2022-09-24T14:39:47;25.27;;;15.52;;
41986;SDS011;28361;50.740;7.084;2022-09-24T14:42:23;20.95;;;15.32;;
41986;SDS011;28361;50.740;7.084;2022-09-24T14:44:52;27.80;;;15.27;;
41986;SDS011;28361;50.740;7.084;2022-09-24T14:47:26;22.95;;;15.75;;
41986;SDS011;28361;50.740;7.084;2022-09-24T14:49:53;28.30;;;15.88;;
41986;SDS011;28361;50.740;7.084;2022-09-24T14:52:33;24.35;;;14.88;;
41986;SDS011;28361;50.740;7.084;2022-09-24T14:55:15;30.95;;;16.08;;
41986;SDS011;28361;50.740;7.084;2022-09-24T14:57:47;32.03;;;17.15;;
41986;SDS011;28361;50.740;7.084;2022-09-24T15:00:18;24.75;;;16.88;;
41986;SDS011;28361;50.740;7.084;2022-09-24T15:02:49;29.85;;;16.80;;
41986;SDS011;28361;50.740;7.084;2022-09-24T15:05:24;28.48;;;17.33;;
41986;SDS011;28361;50.740;7.084;2022-09-24T15:07:52;25.40;;;16.70;;
41986;SDS011;28361;50.740;7.084;2022-09-24T15:10:33;28.58;;;15.82;;
41986;SDS011;28361;50.740;7.084;2022-09-24T15:12:59;28.45;;;17.27;;
41986;SDS011;28361;50.740;7.084;2022-09-24T15:15:28;28.35;;;17.95;;
41986;SDS011;28361;50.740;7.084;2022-09-24T15:17:56;27.45;;;17.85;;
41986;SDS011;28361;50.740;7.084;2022-09-24T15:20:22;24.08;;;16.05;;
41986;SDS011;28361;50.740;7.084;2022-09-24T15:22:47;30.65;;;18.65;;
41986;SDS011;28361;50.740;7.084;2022-09-24T15:25:13;29.13;;;18.40;;
41986;SDS011;28361;50.740;7.084;2022-09-24T15:27:40;30.73;;;21.50;;
41986;SDS011;28361;50.740;7.084;2022-09-24T15:30:09;26.35;;;17.98;;
41986;SDS011;28361;50.740;7.084;2022-09-24T15:32:37;26.30;;;16.42;;
41986;SDS011;28361;50.740;7.084;2022-09-24T15:35:03;27.92;;;17.52;;
41986;SDS011;28361;50.740;7.084;2022-09-24T15:37:33;30.48;;;17.45;;
41986;SDS011;28361;50.740;7.084;2022-09-24T15:40:18;25.00;;;17.05;;
41986;SDS011;28361;50.740;7.084;2022-09-24T15:42:48;27.33;;;16.92;;
41986;SDS011;28361;50.740;7.084;2022-09-24T15:45:16;26.40;;;17.25;;
41986;SDS011;28361;50.740;7.084;2022-09-24T15:47:45;27.83;;;17.80;;
41986;SDS011;28361;50.740;7.084;2022-09-24T15:50:11;27.25;;;18.48;;
41986;SDS011;28361;50.740;7.084;2022-09-24T15:52:45;29.15;;;17.95;;
41986;SDS011;28361;50.740;7.084;2022-09-24T15:55:17;26.23;;;17.63;;
41986;SDS011;28361;50.740;7.084;2022-09-24T15:57:45;26.40;;;18.00;;
41986;SDS011;28361;50.740;7.084;2022-09-24T16:02:41;29.07;;;17.87;;
41986;SDS011;28361;50.740;7.084;2022-09-24T16:05:11;30.38;;;18.60;;
41986;SDS011;28361;50.740;7.084;2022-09-24T16:07:37;28.73;;;18.13;;
41986;SDS011;28361;50.740;7.084;2022-09-24T16:10:03;28.60;;;18.20;;
41986;SDS011;28361;50.740;7.084;2022-09-24T16:12:29;25.08;;;17.00;;
41986;SDS011;28361;50.740;7.084;2022-09-24T16:14:55;27.77;;;18.73;;
41986;SDS011;28361;50.740;7.084;2022-09-24T16:17:23;27.55;;;18.40;;
41986;SDS011;28361;50.740;7.084;2022-09-24T16:19:50;26.85;;;17.85;;
41986;SDS011;28361;50.740;7.084;2022-09-24T16:22:16;30.73;;;18.80;;
41986;SDS011;28361;50.740;7.084;2022-09-24T16:24:41;24.05;;;15.60;;
41986;SDS011;28361;50.740;7.084;2022-09-24T16:27:07;21.40;;;15.30;;
41986;SDS011;28361;50.740;7.084;2022-09-24T16:29:33;25.00;;;15.98;;
41986;SDS011;28361;50.740;7.084;2022-09-24T16:31:59;28.25;;;15.77;;
41986;SDS011;28361;50.740;7.084;2022-09-24T16:34:26;25.83;;;16.15;;
41986;SDS011;28361;50.740;7.084;2022-09-24T16:36:52;43.08;;;28.95;;
41986;SDS011;28361;50.740;7.084;2022-09-24T16:39:18;29.83;;;19.30;;
41986;SDS011;28361;50.740;7.084;2022-09-24T16:41:48;21.88;;;15.93;;
41986;SDS011;28361;50.740;7.084;2022-09-24T16:44:15;23.35;;;15.25;;
41986;SDS011;28361;50.740;7.084;2022-09-24T16:46:41;25.30;;;15.75;;
41986;SDS011;28361;50.740;7.084;2022-09-24T16:49:08;23.98;;;16.42;;
41986;SDS011;28361;50.740;7.084;2022-09-24T16:51:34;22.08;;;14.05;;
41986;SDS011;28361;50.740;7.084;2022-09-24T16:54:00;20.65;;;14.27;;
41986;SDS011;28361;50.740;7.084;2022-09-24T16:56:26;21.90;;;14.00;;
41986;SDS011;28361;50.740;7.084;2022-09-24T16:58:52;21.00;;;14.18;;
41986;SDS011;28361;50.740;7.084;2022-09-24T17:01:19;20.25;;;13.48;;
41986;SDS011;28361;50.740;7.084;2022-09-24T17:03:55;17.17;;;12.93;;
41986;SDS011;28361;50.740;7.084;2022-09-24T17:06:25;22.23;;;14.32;;
41986;SDS011;28361;50.740;7.084;2022-09-24T17:11:37;18.65;;;12.30;;
41986;SDS011;28361;50.740;7.084;2022-09-24T17:14:04;19.85;;;13.27;;
41986;SDS011;28361;50.740;7.084;2022-09-24T17:16:32;19.30;;;12.65;;
41986;SDS011;28361;50.740;7.084;2022-09-24T17:18:58;20.00;;;13.25;;
41986;SDS011;28361;50.740;7.084;2022-09-24T17:21:25;26.98;;;17.88;;
41986;SDS011;28361;50.740;7.084;2022-09-24T17:23:51;29.52;;;18.27;;
41986;SDS011;28361;50.740;7.084;2022-09-24T17:26:18;26.23;;;15.65;;
41986;SDS011;28361;50.740;7.084;2022-09-24T17:28:46;23.08;;;14.45;;
41986;SDS011;28361;50.740;7.084;2022-09-24T17:31:14;20.27;;;13.00;;
41986;SDS011;28361;50.740;7.084;2022-09-24T17:33:41;17.77;;;10.52;;
41986;SDS011;28361;50.740;7.084;2022-09-24T17:36:07;13.85;;;9.23;;